createdAt,value
2023-03-19T00:02:17.642Z,83.80
2023-03-19T00:04:35.577Z,84.02
2023-03-19T00:07:01.901Z,84.17
2023-03-19T00:09:28.244Z,84.40
2023-03-19T00:11:54.624Z,84.57
2023-03-19T00:14:21.010Z,84.72
2023-03-19T00:16:47.411Z,84.85
2023-03-19T00:19:13.762Z,84.99
2023-03-19T00:21:40.128Z,85.15
2023-03-19T00:24:06.480Z,85.35
2023-03-19T00:26:32.834Z,85.48
2023-03-19T00:28:59.173Z,85.62
2023-03-19T00:31:25.529Z,85.77
2023-03-19T00:33:51.860Z,86.00
2023-03-19T00:36:18.281Z,86.12
2023-03-19T00:38:44.607Z,86.29
2023-03-19T00:41:11.017Z,86.44
2023-03-19T00:43:37.364Z,86.54
2023-03-19T00:46:03.711Z,86.68
2023-03-19T00:48:30.063Z,86.85
2023-03-19T00:50:56.380Z,86.94
2023-03-19T00:53:22.764Z,87.07
2023-03-19T00:55:49.092Z,87.32
2023-03-19T00:58:15.470Z,87.44
2023-03-19T01:00:41.792Z,87.54
2023-03-19T01:03:08.158Z,87.61
2023-03-19T01:05:34.757Z,87.72
2023-03-19T01:08:00.840Z,87.83
2023-03-19T01:10:27.164Z,87.95
2023-03-19T01:12:53.544Z,88.16
2023-03-19T01:15:19.854Z,88.25
2023-03-19T01:17:46.241Z,88.35
2023-03-19T01:20:12.549Z,88.42
2023-03-19T01:22:38.948Z,88.51
2023-03-19T01:25:05.254Z,88.56
2023-03-19T01:27:31.631Z,88.67
2023-03-19T01:29:57.955Z,88.79
2023-03-19T01:32:24.382Z,88.88
2023-03-19T01:34:50.715Z,88.92
2023-03-19T01:37:17.054Z,88.93
2023-03-19T01:39:43.373Z,88.96
2023-03-19T01:42:09.718Z,89.09
2023-03-19T01:44:36.121Z,89.18
2023-03-19T01:47:02.477Z,89.20
2023-03-19T01:49:28.832Z,89.26
2023-03-19T01:51:55.222Z,89.34
2023-03-19T01:54:21.541Z,89.38
2023-03-19T01:56:47.948Z,89.43
2023-03-19T01:59:14.258Z,89.47
2023-03-19T02:01:40.666Z,89.56
2023-03-19T02:04:06.999Z,89.65
2023-03-19T02:06:33.320Z,89.67
2023-03-19T02:08:59.694Z,89.75
2023-03-19T02:11:26.021Z,89.86
2023-03-19T02:13:52.367Z,89.95
2023-03-19T02:16:18.719Z,90.00
2023-03-19T02:18:45.016Z,90.06
2023-03-19T02:21:11.363Z,90.12
2023-03-19T02:23:37.803Z,90.21
2023-03-19T02:26:04.129Z,90.32
2023-03-19T02:28:30.490Z,90.43
2023-03-19T02:30:56.869Z,90.61
2023-03-19T02:33:23.225Z,90.64
2023-03-19T02:35:49.574Z,90.77
2023-03-19T02:38:15.946Z,90.84
2023-03-19T02:40:42.295Z,90.97
2023-03-19T02:43:08.657Z,90.98
2023-03-19T02:45:35.080Z,91.04
2023-03-19T02:48:01.383Z,91.13
2023-03-19T02:50:27.769Z,91.27
2023-03-19T02:52:54.129Z,91.33
2023-03-19T02:55:20.457Z,91.42
2023-03-19T02:57:46.780Z,91.52
2023-03-19T03:00:13.169Z,91.63
2023-03-19T03:02:39.500Z,91.74
2023-03-19T03:05:05.849Z,91.79
2023-03-19T03:07:32.242Z,91.93
2023-03-19T03:09:58.579Z,91.92
2023-03-19T03:12:24.938Z,92.05
2023-03-19T03:14:51.322Z,92.13
2023-03-19T03:17:17.678Z,92.17
2023-03-19T03:19:44.083Z,92.30
2023-03-19T03:22:10.416Z,92.34
2023-03-19T03:24:36.796Z,92.35
2023-03-19T03:27:03.107Z,92.45
2023-03-19T03:29:29.475Z,92.55
2023-03-19T03:31:55.894Z,92.54
2023-03-19T03:34:22.228Z,92.60
2023-03-19T03:36:48.648Z,92.58
2023-03-19T03:39:14.946Z,92.60
2023-03-19T03:41:41.301Z,92.57
2023-03-19T03:44:07.655Z,92.46
2023-03-19T03:46:33.985Z,92.57
2023-03-19T03:49:00.342Z,92.57
2023-03-19T03:51:26.660Z,92.62
2023-03-19T03:53:53.012Z,92.68
2023-03-19T03:56:19.371Z,92.62
2023-03-19T03:58:45.765Z,92.64
2023-03-19T04:01:12.080Z,92.67
2023-03-19T04:03:38.476Z,92.68
2023-03-19T04:06:04.747Z,92.78
2023-03-19T04:08:31.189Z,92.72
2023-03-19T04:10:57.557Z,92.71
2023-03-19T04:13:23.924Z,92.82
2023-03-19T04:15:50.234Z,92.90
2023-03-19T04:18:16.623Z,92.94
2023-03-19T04:20:43.016Z,92.99
2023-03-19T04:23:09.364Z,93.04
2023-03-19T04:25:35.735Z,93.07
2023-03-19T04:28:02.132Z,93.09
2023-03-19T04:30:28.492Z,93.12
2023-03-19T04:32:54.895Z,93.16
2023-03-19T04:35:21.191Z,93.22
2023-03-19T04:37:47.532Z,93.16
2023-03-19T04:40:13.900Z,93.26
2023-03-19T04:42:40.243Z,93.23
2023-03-19T04:45:06.600Z,93.23
2023-03-19T04:47:32.949Z,93.31
2023-03-19T04:49:59.276Z,93.35
2023-03-19T04:52:25.664Z,93.47
2023-03-19T04:54:52.039Z,93.58
2023-03-19T04:57:18.375Z,93.71
2023-03-19T04:59:44.729Z,93.87
2023-03-19T05:02:11.118Z,93.96
2023-03-19T05:04:37.442Z,94.05
2023-03-19T05:07:03.777Z,94.27
2023-03-19T05:09:30.091Z,94.39
2023-03-19T05:11:56.440Z,94.52
2023-03-19T05:14:22.752Z,94.61
2023-03-19T05:16:49.090Z,94.78
2023-03-19T05:19:15.450Z,95.10
2023-03-19T05:21:41.831Z,95.48
2023-03-19T05:24:08.569Z,95.98
2023-03-19T05:26:34.966Z,96.43
2023-03-19T05:29:01.344Z,96.77
2023-03-19T05:31:27.680Z,97.12
2023-03-19T05:33:54.044Z,97.26
2023-03-19T05:36:20.456Z,97.26
2023-03-19T05:38:47.189Z,96.98
2023-03-19T05:41:13.574Z,96.64
2023-03-19T05:43:39.882Z,96.25
2023-03-19T05:46:06.321Z,95.80
2023-03-19T05:48:32.630Z,95.32
2023-03-19T05:50:59.002Z,94.83
2023-03-19T05:53:25.368Z,94.33
2023-03-19T05:55:51.713Z,93.74
2023-03-19T05:58:18.039Z,93.14
2023-03-19T06:00:44.434Z,92.65
2023-03-19T06:03:10.944Z,92.11
2023-03-19T06:05:37.232Z,91.54
2023-03-19T06:08:03.578Z,91.09
2023-03-19T06:10:30.012Z,90.47
2023-03-19T06:12:56.276Z,89.83
2023-03-19T06:15:22.679Z,89.10
2023-03-19T06:17:49.004Z,88.68
2023-03-19T06:20:15.402Z,88.24
2023-03-19T06:22:41.788Z,87.76
2023-03-19T06:25:08.133Z,87.28
2023-03-19T06:27:34.458Z,86.81
2023-03-19T06:30:00.840Z,86.45
2023-03-19T06:32:27.231Z,86.17
2023-03-19T06:34:53.571Z,85.84
2023-03-19T06:37:19.953Z,85.34
2023-03-19T06:39:46.274Z,84.97
2023-03-19T06:42:12.664Z,84.51
2023-03-19T06:44:39.019Z,84.04
2023-03-19T06:47:05.383Z,83.52
2023-03-19T06:49:31.829Z,82.79
2023-03-19T06:51:58.145Z,82.11
2023-03-19T06:54:24.527Z,81.43
2023-03-19T06:56:50.922Z,80.73
2023-03-19T06:59:17.337Z,80.04
2023-03-19T07:01:43.724Z,79.34
2023-03-19T07:04:10.173Z,78.63
2023-03-19T07:06:36.466Z,77.95
2023-03-19T07:09:02.809Z,77.28
2023-03-19T07:11:29.130Z,76.72
2023-03-19T07:13:55.507Z,76.03
2023-03-19T07:16:21.889Z,65.54
2023-03-19T07:18:48.233Z,57.26
2023-03-19T07:21:14.560Z,54.39
2023-03-19T07:23:40.953Z,54.75
2023-03-19T07:26:07.317Z,55.46
2023-03-19T07:28:35.812Z,54.29
2023-03-19T07:31:00.094Z,54.94
2023-03-19T07:33:26.400Z,54.24
2023-03-19T07:35:52.895Z,53.80
2023-03-19T07:38:19.194Z,54.89
2023-03-19T07:40:59.063Z,53.38
2023-03-19T07:43:11.940Z,52.09
2023-03-19T07:45:38.317Z,52.28
2023-03-19T07:48:04.663Z,50.81
2023-03-19T07:50:31.002Z,51.53
2023-03-19T07:52:57.372Z,51.16
2023-03-19T07:55:23.749Z,51.59
2023-03-19T07:57:50.129Z,52.08
2023-03-19T08:00:16.469Z,51.82
2023-03-19T08:02:42.919Z,50.99
2023-03-19T08:05:09.172Z,50.73
2023-03-19T08:07:35.739Z,51.31
2023-03-19T08:10:02.157Z,52.31
2023-03-19T08:12:28.553Z,49.44
2023-03-19T08:14:54.902Z,48.23
2023-03-19T08:17:21.237Z,48.85
2023-03-19T08:19:47.618Z,48.70
2023-03-19T08:22:13.953Z,47.45
2023-03-19T08:24:40.357Z,46.63
2023-03-19T08:27:06.797Z,51.79
2023-03-19T08:29:33.169Z,48.55
2023-03-19T08:31:59.492Z,44.85
2023-03-19T08:34:25.891Z,45.58
2023-03-19T08:36:52.234Z,50.17
2023-03-19T08:39:18.623Z,52.93
2023-03-19T08:41:44.965Z,51.92
2023-03-19T08:44:11.396Z,49.42
2023-03-19T08:46:37.852Z,49.04
2023-03-19T08:49:04.217Z,46.70
2023-03-19T08:51:30.574Z,46.47
2023-03-19T08:53:57.116Z,45.55
2023-03-19T08:56:23.428Z,45.52
2023-03-19T08:58:49.828Z,44.43
2023-03-19T09:01:16.284Z,44.45
2023-03-19T09:03:42.678Z,44.36
2023-03-19T09:06:09.000Z,43.27
2023-03-19T09:08:35.347Z,42.43
2023-03-19T09:11:01.727Z,42.38
2023-03-19T09:13:28.129Z,42.72
2023-03-19T09:15:54.589Z,42.51
2023-03-19T09:18:20.880Z,41.06
2023-03-19T09:20:47.245Z,40.89
2023-03-19T09:23:13.602Z,40.70
2023-03-19T09:25:39.936Z,39.48
2023-03-19T09:28:06.335Z,39.17
2023-03-19T09:30:32.674Z,39.65
2023-03-19T09:32:59.106Z,38.39
2023-03-19T09:35:25.410Z,37.56
2023-03-19T09:37:52.183Z,38.56
2023-03-19T09:40:18.291Z,38.46
2023-03-19T09:42:44.691Z,38.68
2023-03-19T09:45:11.032Z,37.06
2023-03-19T09:47:37.478Z,35.49
2023-03-19T09:50:03.828Z,34.37
2023-03-19T09:52:30.199Z,34.37
2023-03-19T09:54:56.566Z,34.30
2023-03-19T09:57:22.924Z,34.29
2023-03-19T09:59:49.601Z,34.00
2023-03-19T10:02:15.974Z,33.90
2023-03-19T10:04:42.353Z,34.11
2023-03-19T10:07:08.753Z,33.99
2023-03-19T10:09:35.082Z,34.31
2023-03-19T10:12:01.884Z,35.55
2023-03-19T10:14:28.241Z,34.00
2023-03-19T10:16:54.643Z,33.01
2023-03-19T10:19:22.230Z,32.44
2023-03-19T10:21:47.385Z,32.85
2023-03-19T10:24:13.752Z,32.81
2023-03-19T10:26:40.102Z,32.62
2023-03-19T10:29:06.506Z,32.04
2023-03-19T10:31:32.944Z,31.80
2023-03-19T10:33:59.264Z,31.62
2023-03-19T10:36:25.676Z,31.96
2023-03-19T10:38:52.061Z,31.49
2023-03-19T10:41:18.397Z,32.61
2023-03-19T10:43:44.722Z,32.03
2023-03-19T10:46:11.173Z,32.36
2023-03-19T10:48:37.588Z,33.34
2023-03-19T10:51:04.040Z,34.37
2023-03-19T10:53:30.422Z,37.54
2023-03-19T10:55:56.766Z,39.72
2023-03-19T10:58:23.152Z,41.67
2023-03-19T11:00:49.575Z,41.42
2023-03-19T11:03:15.843Z,39.69
2023-03-19T11:05:42.223Z,39.73
2023-03-19T11:08:08.542Z,39.83
2023-03-19T11:10:34.902Z,39.63
2023-03-19T11:13:01.254Z,43.17
2023-03-19T11:15:27.622Z,43.29
2023-03-19T11:17:53.993Z,43.79
2023-03-19T11:20:20.351Z,43.38
2023-03-19T11:22:46.702Z,43.70
2023-03-19T11:25:13.093Z,42.95
2023-03-19T11:27:39.514Z,42.82
2023-03-19T11:30:05.887Z,44.06
2023-03-19T11:32:32.467Z,45.33
2023-03-19T11:34:58.651Z,44.82
2023-03-19T11:37:24.979Z,44.96
2023-03-19T11:39:51.391Z,45.67
2023-03-19T11:42:17.791Z,42.70
2023-03-19T11:44:44.183Z,41.66
2023-03-19T11:47:26.182Z,43.16
2023-03-19T11:49:36.904Z,45.48
2023-03-19T11:52:03.334Z,45.55
2023-03-19T11:54:29.820Z,46.43
2023-03-19T11:56:56.162Z,43.28
2023-03-19T11:59:22.565Z,45.84
2023-03-19T12:01:48.933Z,45.57
2023-03-19T12:04:15.359Z,44.15
2023-03-19T12:06:41.698Z,45.49
2023-03-19T12:09:08.071Z,46.82
2023-03-19T12:11:34.436Z,43.89
2023-03-19T12:14:00.919Z,43.29
2023-03-19T12:16:27.282Z,42.81
2023-03-19T12:18:53.634Z,43.73
2023-03-19T12:21:20.040Z,42.88
2023-03-19T12:23:46.428Z,41.31
2023-03-19T12:26:12.783Z,41.79
2023-03-19T12:28:39.171Z,40.92
2023-03-19T12:31:05.540Z,42.58
2023-03-19T12:33:31.859Z,43.84
2023-03-19T12:35:58.464Z,43.69
2023-03-19T12:38:24.747Z,43.38
2023-03-19T12:40:51.120Z,43.17
2023-03-19T12:43:17.480Z,43.18
2023-03-19T12:45:43.796Z,41.96
2023-03-19T12:48:10.205Z,42.10
2023-03-19T12:50:36.787Z,41.64
2023-03-19T12:53:02.901Z,42.46
2023-03-19T12:55:29.294Z,41.50
2023-03-19T12:57:55.682Z,40.71
2023-03-19T13:00:21.997Z,40.85
2023-03-19T13:02:48.508Z,42.03
2023-03-19T13:05:14.757Z,41.48
2023-03-19T13:07:41.150Z,41.71
2023-03-19T13:10:07.470Z,41.42
2023-03-19T13:12:33.811Z,38.99
2023-03-19T13:15:00.221Z,38.47
2023-03-19T13:17:26.568Z,37.45
2023-03-19T13:19:52.891Z,37.92
2023-03-19T13:22:19.229Z,40.32
2023-03-19T13:24:45.562Z,41.54
2023-03-19T13:27:11.925Z,39.38
2023-03-19T13:29:38.295Z,38.02
2023-03-19T13:32:04.706Z,40.25
2023-03-19T13:34:31.012Z,39.77
2023-03-19T13:36:57.453Z,39.88
2023-03-19T13:39:23.805Z,38.72
2023-03-19T13:41:50.164Z,37.87
2023-03-19T13:44:16.510Z,38.66
2023-03-19T13:46:42.907Z,39.34
2023-03-19T13:49:09.207Z,39.54
2023-03-19T13:51:35.658Z,39.43
2023-03-19T13:54:02.025Z,38.48
2023-03-19T13:56:30.367Z,38.62
2023-03-19T13:58:54.744Z,38.13
2023-03-19T14:01:21.598Z,38.77
2023-03-19T14:03:47.964Z,38.18
2023-03-19T14:06:14.356Z,38.58
2023-03-19T14:08:40.709Z,38.02
2023-03-19T14:11:07.870Z,38.58
2023-03-19T14:13:34.267Z,38.86
2023-03-19T14:16:00.618Z,38.36
2023-03-19T14:18:26.976Z,38.81
2023-03-19T14:20:54.335Z,38.24
2023-03-19T14:23:20.199Z,38.22
2023-03-19T14:25:47.995Z,37.85
2023-03-19T14:28:12.681Z,38.66
2023-03-19T14:30:39.048Z,37.95
2023-03-19T14:33:05.403Z,37.95
2023-03-19T14:35:31.808Z,38.09
2023-03-19T14:37:58.149Z,37.86
2023-03-19T14:40:24.532Z,38.43
2023-03-19T14:42:50.885Z,38.55
2023-03-19T14:45:17.245Z,38.40
2023-03-19T14:47:43.737Z,37.21
2023-03-19T14:50:10.139Z,39.27
2023-03-19T14:52:36.495Z,42.04
2023-03-19T14:55:02.918Z,43.20
2023-03-19T14:57:29.272Z,41.68
2023-03-19T14:59:55.665Z,39.70
2023-03-19T15:02:22.063Z,39.51
2023-03-19T15:04:48.506Z,39.32
2023-03-19T15:07:14.920Z,39.20
2023-03-19T15:09:41.303Z,39.25
2023-03-19T15:12:07.704Z,41.44
2023-03-19T15:14:34.072Z,41.26
2023-03-19T15:17:00.454Z,41.30
2023-03-19T15:19:26.825Z,39.50
2023-03-19T15:21:53.190Z,39.47
2023-03-19T15:24:19.719Z,39.60
2023-03-19T15:26:53.445Z,39.07
2023-03-19T15:29:19.802Z,39.23
2023-03-19T15:31:52.720Z,39.04
2023-03-19T15:34:12.663Z,39.19
2023-03-19T15:36:39.791Z,37.46
2023-03-19T15:39:06.204Z,37.64
2023-03-19T15:41:35.695Z,38.05
2023-03-19T15:44:02.047Z,38.69
2023-03-19T15:46:30.987Z,38.45
2023-03-19T15:48:58.543Z,39.11
2023-03-19T15:51:24.934Z,38.57
2023-03-19T15:53:51.347Z,38.16
2023-03-19T15:56:17.979Z,38.83
2023-03-19T15:58:47.923Z,38.85
2023-03-19T16:01:16.789Z,39.49
2023-03-19T16:03:43.055Z,39.16
2023-03-19T16:06:09.460Z,39.48
2023-03-19T16:08:35.850Z,39.43
2023-03-19T16:11:03.362Z,39.57
2023-03-19T16:13:30.691Z,39.43
2023-03-19T16:15:57.401Z,38.92
2023-03-19T16:18:23.805Z,39.17
2023-03-19T16:20:50.125Z,39.07
2023-03-19T16:23:16.538Z,39.04
2023-03-19T16:25:43.943Z,39.12
2023-03-19T16:28:10.288Z,41.59
2023-03-19T16:30:36.924Z,40.52
2023-03-19T16:33:05.244Z,40.31
2023-03-19T16:35:31.644Z,40.99
2023-03-19T16:37:57.853Z,40.38
2023-03-19T16:40:24.202Z,40.60
2023-03-19T16:42:50.610Z,40.75
2023-03-19T16:45:16.961Z,40.40
2023-03-19T16:47:43.407Z,40.50
2023-03-19T16:50:10.207Z,40.72
2023-03-19T16:52:36.611Z,41.04
2023-03-19T16:55:03.194Z,40.83
2023-03-19T16:57:34.336Z,41.10
2023-03-19T17:00:01.078Z,41.24
2023-03-19T17:02:27.450Z,41.28
2023-03-19T17:04:53.936Z,41.33
2023-03-19T17:07:20.175Z,41.29
2023-03-19T17:09:47.855Z,41.44
2023-03-19T17:12:14.189Z,41.20
2023-03-19T17:14:40.528Z,41.37
2023-03-19T17:17:06.872Z,41.58
2023-03-19T17:19:34.364Z,41.63
2023-03-19T17:22:00.722Z,41.51
2023-03-19T17:24:31.270Z,41.57
2023-03-19T17:27:01.143Z,42.12
2023-03-19T17:29:27.474Z,42.10
2023-03-19T17:31:53.998Z,42.73
2023-03-19T17:34:20.198Z,42.95
2023-03-19T17:36:46.554Z,43.09
2023-03-19T17:39:12.924Z,42.59
2023-03-19T17:41:39.337Z,42.34
2023-03-19T17:44:06.723Z,42.63
2023-03-19T17:46:32.111Z,42.86
2023-03-19T17:48:58.385Z,43.09
2023-03-19T17:51:24.774Z,43.07
2023-03-19T17:53:51.152Z,43.02
2023-03-19T17:56:17.567Z,42.99
2023-03-19T17:58:43.982Z,43.22
2023-03-19T18:01:10.343Z,43.55
2023-03-19T18:03:36.668Z,43.61
2023-03-19T18:06:03.037Z,43.74
2023-03-19T18:08:29.414Z,43.82
2023-03-19T18:10:55.804Z,43.92
2023-03-19T18:13:22.128Z,44.28
2023-03-19T18:15:48.507Z,44.35
2023-03-19T18:18:14.841Z,44.28
2023-03-19T18:20:41.221Z,44.36
2023-03-19T18:23:07.593Z,44.18
2023-03-19T18:25:33.928Z,44.28
2023-03-19T18:28:00.346Z,44.26
2023-03-19T18:30:26.675Z,44.45
2023-03-19T18:32:53.131Z,44.39
2023-03-19T18:35:19.513Z,44.45
2023-03-19T18:37:46.891Z,44.63
2023-03-19T18:40:13.236Z,44.83
2023-03-19T18:42:39.618Z,45.13
2023-03-19T18:45:05.986Z,45.21
2023-03-19T18:47:32.370Z,45.45
2023-03-19T18:49:58.788Z,46.10
2023-03-19T18:52:25.209Z,46.79
2023-03-19T18:54:51.848Z,46.30
2023-03-19T18:57:18.241Z,46.20
2023-03-19T18:59:44.604Z,46.20
2023-03-19T19:02:10.956Z,46.22
2023-03-19T19:04:37.392Z,46.60
2023-03-19T19:07:03.669Z,47.35
2023-03-19T19:09:30.066Z,47.34
2023-03-19T19:11:57.507Z,46.70
2023-03-19T19:14:22.711Z,47.08
2023-03-19T19:16:49.162Z,46.92
2023-03-19T19:19:15.449Z,46.60
2023-03-19T19:21:41.837Z,46.65
2023-03-19T19:24:08.218Z,46.78
2023-03-19T19:26:34.535Z,46.62
2023-03-19T19:29:00.879Z,47.10
2023-03-19T19:31:27.364Z,47.29
2023-03-19T19:33:53.666Z,47.09
2023-03-19T19:36:20.020Z,47.51
2023-03-19T19:38:46.629Z,47.90
2023-03-19T19:41:12.965Z,47.94
2023-03-19T19:43:39.289Z,48.11
2023-03-19T19:46:05.655Z,47.89
2023-03-19T19:48:32.009Z,47.77
2023-03-19T19:50:58.371Z,47.65
2023-03-19T19:53:24.967Z,47.90
2023-03-19T19:55:51.357Z,48.14
2023-03-19T19:58:17.683Z,48.37
2023-03-19T20:00:50.343Z,48.02
2023-03-19T20:03:10.422Z,48.18
2023-03-19T20:05:36.935Z,48.17
2023-03-19T20:08:03.290Z,48.16
2023-03-19T20:10:29.680Z,48.59
2023-03-19T20:12:56.082Z,48.39
2023-03-19T20:15:24.657Z,48.68
2023-03-19T20:17:50.984Z,48.69
2023-03-19T20:20:17.330Z,48.66
2023-03-19T20:22:43.675Z,48.81
2023-03-19T20:25:10.082Z,49.07
2023-03-19T20:27:36.443Z,49.05
2023-03-19T20:30:02.821Z,48.86
2023-03-19T20:32:29.686Z,48.76
2023-03-19T20:34:56.137Z,49.07
2023-03-19T20:37:22.490Z,49.05
2023-03-19T20:39:48.895Z,48.91
2023-03-19T20:42:15.277Z,48.96
2023-03-19T20:44:41.620Z,49.17
2023-03-19T20:47:07.982Z,49.26
2023-03-19T20:49:34.341Z,49.26
2023-03-19T20:52:00.928Z,49.21
2023-03-19T20:54:29.734Z,49.44
2023-03-19T20:56:56.088Z,49.48
2023-03-19T20:59:22.476Z,49.59
2023-03-19T21:01:48.931Z,49.59
2023-03-19T21:04:15.216Z,49.64
2023-03-19T21:06:52.521Z,49.87
2023-03-19T21:09:07.950Z,49.86
2023-03-19T21:11:34.302Z,50.36
2023-03-19T21:14:00.678Z,50.34
2023-03-19T21:16:27.076Z,50.60
2023-03-19T21:18:53.488Z,50.51
2023-03-19T21:21:19.863Z,50.45
2023-03-19T21:23:46.633Z,50.56
2023-03-19T21:26:12.999Z,50.87
2023-03-19T21:28:39.343Z,51.04
2023-03-19T21:31:05.739Z,51.27
2023-03-19T21:33:32.127Z,51.38
2023-03-19T21:35:58.472Z,51.48
2023-03-19T21:38:24.788Z,51.45
2023-03-19T21:40:51.196Z,52.34
2023-03-19T21:43:17.729Z,64.50
2023-03-19T21:45:44.073Z,67.09
2023-03-19T21:48:10.414Z,68.17
2023-03-19T21:50:37.770Z,68.67
2023-03-19T21:53:04.114Z,68.81
2023-03-19T21:55:30.503Z,68.95
2023-03-19T21:57:56.852Z,69.16
2023-03-19T22:00:23.248Z,69.41
2023-03-19T22:02:49.618Z,69.70
2023-03-19T22:05:15.932Z,69.99
2023-03-19T22:07:42.336Z,70.26
2023-03-19T22:10:08.723Z,70.60
2023-03-19T22:12:35.118Z,70.93
2023-03-19T22:15:01.512Z,71.25
2023-03-19T22:17:27.885Z,71.63
2023-03-19T22:19:54.321Z,72.00
2023-03-19T22:22:20.710Z,72.42
2023-03-19T22:24:47.082Z,72.77
2023-03-19T22:27:13.482Z,73.17
2023-03-19T22:29:39.802Z,73.54
2023-03-19T22:32:06.217Z,73.94
2023-03-19T22:34:32.555Z,74.34
2023-03-19T22:36:58.962Z,74.71
2023-03-19T22:39:25.321Z,75.11
2023-03-19T22:41:51.715Z,75.50
2023-03-19T22:44:18.049Z,75.90
2023-03-19T22:46:44.453Z,76.34
2023-03-19T22:49:10.814Z,76.79
2023-03-19T22:51:37.199Z,77.16
2023-03-19T22:54:03.561Z,77.56
2023-03-19T22:56:29.904Z,77.97
2023-03-19T22:58:56.233Z,78.37
2023-03-19T23:01:22.661Z,78.77
2023-03-19T23:03:48.929Z,79.16
2023-03-19T23:06:28.696Z,79.56
2023-03-19T23:08:41.660Z,79.96
2023-03-19T23:11:08.067Z,80.34
2023-03-19T23:13:34.445Z,80.68
2023-03-19T23:16:00.867Z,81.03
2023-03-19T23:18:27.269Z,81.36
2023-03-19T23:20:53.693Z,81.69
2023-03-19T23:23:19.985Z,82.02
2023-03-19T23:25:46.376Z,82.40
2023-03-19T23:28:12.690Z,82.66
2023-03-19T23:30:39.099Z,83.01
2023-03-19T23:33:05.419Z,83.34
2023-03-19T23:35:31.808Z,83.66
2023-03-19T23:37:58.141Z,83.95
2023-03-19T23:40:24.613Z,84.26
2023-03-19T23:42:50.948Z,84.54
2023-03-19T23:45:17.313Z,84.78
2023-03-19T23:47:43.666Z,85.07
2023-03-19T23:50:10.010Z,85.42
2023-03-19T23:52:36.344Z,85.69
2023-03-19T23:55:02.838Z,85.99
2023-03-19T23:57:29.127Z,86.20
2023-03-19T23:59:55.470Z,86.49
